sensor_id;sensor_type;location;lat;lon;timestamp;temperature;humidity
20885;DHT22;10602;48.000;9.654;2023-03-01T01:01:34;-0.50;99.90
20885;DHT22;10602;48.000;9.654;2023-03-01T01:07:13;-0.50;99.90
20885;DHT22;10602;48.000;9.654;2023-03-01T01:12:44;-0.50;99.90
20885;DHT22;10602;48.000;9.654;2023-03-01T01:15:25;-0.50;99.90
20885;DHT22;10602;48.000;9.654;2023-03-01T01:20:03;-0.50;99.90
20885;DHT22;10602;48.000;9.654;2023-03-01T01:22:39;-0.50;99.90
20885;DHT22;10602;48.000;9.654;2023-03-01T01:25:00;-0.50;99.90
20885;DHT22;10602;48.000;9.654;2023-03-01T01:27:30;-0.50;1.00
20885;DHT22;10602;48.000;9.654;2023-03-01T01:29:57;-0.50;1.00
20885;DHT22;10602;48.000;9.654;2023-03-01T01:32:25;-0.50;1.00
20885;DHT22;10602;48.000;9.654;2023-03-01T01:34:54;-0.50;1.00
20885;DHT22;10602;48.000;9.654;2023-03-01T01:37:22;-0.50;1.00
20885;DHT22;10602;48.000;9.654;2023-03-01T01:39:51;-0.60;1.00
20885;DHT22;10602;48.000;9.654;2023-03-01T01:42:19;-0.60;1.00
20885;DHT22;10602;48.000;9.654;2023-03-01T01:44:48;-0.60;1.00
20885;DHT22;10602;48.000;9.654;2023-03-01T01:47:20;-0.60;1.00
20885;DHT22;10602;48.000;9.654;2023-03-01T01:49:56;-0.60;1.00
20885;DHT22;10602;48.000;9.654;2023-03-01T01:52:22;-0.60;1.00
20885;DHT22;10602;48.000;9.654;2023-03-01T01:54:57;-0.60;1.00
20885;DHT22;10602;48.000;9.654;2023-03-01T01:57:49;-0.60;1.00
20885;DHT22;10602;48.000;9.654;2023-03-01T02:02:59;-0.70;1.00
20885;DHT22;10602;48.000;9.654;2023-03-01T02:08:36;-0.70;1.00
20885;DHT22;10602;48.000;9.654;2023-03-01T02:11:09;-0.70;1.00
20885;DHT22;10602;48.000;9.654;2023-03-01T02:13:37;-0.70;1.00
20885;DHT22;10602;48.000;9.654;2023-03-01T02:16:13;-0.70;1.00
20885;DHT22;10602;48.000;9.654;2023-03-01T02:18:42;-0.70;1.00
20885;DHT22;10602;48.000;9.654;2023-03-01T02:21:29;-0.70;1.00
20885;DHT22;10602;48.000;9.654;2023-03-01T02:23:56;-0.70;1.00
20885;DHT22;10602;48.000;9.654;2023-03-01T02:26:32;-0.70;1.00
20885;DHT22;10602;48.000;9.654;2023-03-01T02:28:58;-0.70;1.00
20885;DHT22;10602;48.000;9.654;2023-03-01T02:31:26;-0.70;1.00
20885;DHT22;10602;48.000;9.654;2023-03-01T02:34:14;-0.70;1.00
20885;DHT22;10602;48.000;9.654;2023-03-01T02:36:51;-0.70;1.00
20885;DHT22;10602;48.000;9.654;2023-03-01T02:39:30;-0.70;1.00
20885;DHT22;10602;48.000;9.654;2023-03-01T02:41:59;-0.70;1.00
20885;DHT22;10602;48.000;9.654;2023-03-01T02:44:28;-0.70;1.00
20885;DHT22;10602;48.000;9.654;2023-03-01T02:46:58;-0.70;1.00
20885;DHT22;10602;48.000;9.654;2023-03-01T02:49:29;-0.70;1.00
20885;DHT22;10602;48.000;9.654;2023-03-01T02:52:20;-0.70;1.00
20885;DHT22;10602;48.000;9.654;2023-03-01T02:55:03;-0.70;1.00
20885;DHT22;10602;48.000;9.654;2023-03-01T02:57:40;-0.70;1.00
20885;DHT22;10602;48.000;9.654;2023-03-01T03:00:16;-0.70;1.00
20885;DHT22;10602;48.000;9.654;2023-03-01T03:02:56;-0.70;1.00
20885;DHT22;10602;48.000;9.654;2023-03-01T03:05:29;-0.80;1.00
20885;DHT22;10602;48.000;9.654;2023-03-01T03:07:58;-0.80;1.00
20885;DHT22;10602;48.000;9.654;2023-03-01T03:10:41;-0.80;1.00
20885;DHT22;10602;48.000;9.654;2023-03-01T03:13:16;-0.70;1.00
20885;DHT22;10602;48.000;9.654;2023-03-01T03:15:46;-0.70;1.00
20885;DHT22;10602;48.000;9.654;2023-03-01T03:18:17;-0.80;1.00
20885;DHT22;10602;48.000;9.654;2023-03-01T03:20:45;-0.70;1.00
20885;DHT22;10602;48.000;9.654;2023-03-01T03:23:13;-0.80;1.00
20885;DHT22;10602;48.000;9.654;2023-03-01T03:25:41;-0.80;1.00
20885;DHT22;10602;48.000;9.654;2023-03-01T03:28:12;-0.80;1.00
20885;DHT22;10602;48.000;9.654;2023-03-01T03:30:43;-0.70;1.00
20885;DHT22;10602;48.000;9.654;2023-03-01T03:36:00;-0.80;1.00
20885;DHT22;10602;48.000;9.654;2023-03-01T03:38:30;-0.80;1.00
20885;DHT22;10602;48.000;9.654;2023-03-01T03:41:34;-0.80;1.00
20885;DHT22;10602;48.000;9.654;2023-03-01T03:43:54;-0.80;1.00
20885;DHT22;10602;48.000;9.654;2023-03-01T03:46:27;-0.80;1.00
20885;DHT22;10602;48.000;9.654;2023-03-01T03:49:11;-0.80;1.00
20885;DHT22;10602;48.000;9.654;2023-03-01T03:51:45;-0.80;1.00
20885;DHT22;10602;48.000;9.654;2023-03-01T03:54:26;-0.80;1.00
20885;DHT22;10602;48.000;9.654;2023-03-01T03:56:52;-0.80;1.00
20885;DHT22;10602;48.000;9.654;2023-03-01T04:02:08;-0.80;1.00
20885;DHT22;10602;48.000;9.654;2023-03-01T04:04:40;-0.80;1.00
20885;DHT22;10602;48.000;9.654;2023-03-01T04:07:29;-0.80;1.00
20885;DHT22;10602;48.000;9.654;2023-03-01T04:10:22;-0.80;1.00
20885;DHT22;10602;48.000;9.654;2023-03-01T04:12:48;-0.80;1.00
20885;DHT22;10602;48.000;9.654;2023-03-01T04:15:29;-0.80;1.00
20885;DHT22;10602;48.000;9.654;2023-03-01T04:18:11;-0.80;1.00
20885;DHT22;10602;48.000;9.654;2023-03-01T04:20:56;-0.80;1.00
20885;DHT22;10602;48.000;9.654;2023-03-01T04:23:24;-0.80;1.00
20885;DHT22;10602;48.000;9.654;2023-03-01T04:25:56;-0.80;1.00
20885;DHT22;10602;48.000;9.654;2023-03-01T04:28:32;-0.80;1.00
20885;DHT22;10602;48.000;9.654;2023-03-01T04:31:08;-0.80;1.00
20885;DHT22;10602;48.000;9.654;2023-03-01T04:33:46;-0.80;1.00
20885;DHT22;10602;48.000;9.654;2023-03-01T04:36:15;-0.80;1.00
20885;DHT22;10602;48.000;9.654;2023-03-01T04:38:44;-0.80;1.00
20885;DHT22;10602;48.000;9.654;2023-03-01T04:41:22;-0.80;1.00
20885;DHT22;10602;48.000;9.654;2023-03-01T04:43:46;-0.70;1.00
20885;DHT22;10602;48.000;9.654;2023-03-01T04:46:18;-0.70;1.00
20885;DHT22;10602;48.000;9.654;2023-03-01T04:48:46;-0.70;1.00
20885;DHT22;10602;48.000;9.654;2023-03-01T04:51:14;-0.70;1.00
20885;DHT22;10602;48.000;9.654;2023-03-01T04:53:48;-0.70;1.00
20885;DHT22;10602;48.000;9.654;2023-03-01T04:56:25;-0.70;1.00
20885;DHT22;10602;48.000;9.654;2023-03-01T04:59:09;-0.70;1.00
20885;DHT22;10602;48.000;9.654;2023-03-01T05:01:32;-0.70;1.00
20885;DHT22;10602;48.000;9.654;2023-03-01T05:04:04;-0.70;1.00
20885;DHT22;10602;48.000;9.654;2023-03-01T05:09:38;-0.70;1.00
20885;DHT22;10602;48.000;9.654;2023-03-01T05:12:03;-0.70;1.00
20885;DHT22;10602;48.000;9.654;2023-03-01T05:14:42;-0.70;1.00
20885;DHT22;10602;48.000;9.654;2023-03-01T05:17:13;-0.70;1.00
20885;DHT22;10602;48.000;9.654;2023-03-01T05:19:55;-0.70;1.00
20885;DHT22;10602;48.000;9.654;2023-03-01T05:22:40;-0.70;1.00
20885;DHT22;10602;48.000;9.654;2023-03-01T05:28:03;-0.70;1.00
20885;DHT22;10602;48.000;9.654;2023-03-01T05:30:32;-0.60;1.00
20885;DHT22;10602;48.000;9.654;2023-03-01T05:33:01;-0.60;1.00
20885;DHT22;10602;48.000;9.654;2023-03-01T05:35:28;-0.60;1.00
20885;DHT22;10602;48.000;9.654;2023-03-01T05:37:58;-0.60;1.00
20885;DHT22;10602;48.000;9.654;2023-03-01T05:40:40;-0.60;1.00
20885;DHT22;10602;48.000;9.654;2023-03-01T05:43:02;-0.60;1.00
20885;DHT22;10602;48.000;9.654;2023-03-01T05:45:31;-0.70;1.00
20885;DHT22;10602;48.000;9.654;2023-03-01T05:47:59;-0.60;1.00
20885;DHT22;10602;48.000;9.654;2023-03-01T05:53:17;-0.60;1.00
20885;DHT22;10602;48.000;9.654;2023-03-01T05:55:53;-0.60;1.00
20885;DHT22;10602;48.000;9.654;2023-03-01T05:58:30;-0.60;1.00
20885;DHT22;10602;48.000;9.654;2023-03-01T06:01:03;-0.60;1.00
20885;DHT22;10602;48.000;9.654;2023-03-01T06:03:39;-0.60;1.00
20885;DHT22;10602;48.000;9.654;2023-03-01T06:11:56;-0.60;1.00
20885;DHT22;10602;48.000;9.654;2023-03-01T06:14:30;-0.60;1.00
20885;DHT22;10602;48.000;9.654;2023-03-01T06:26:40;-0.50;1.00
20885;DHT22;10602;48.000;9.654;2023-03-01T06:29:13;-0.50;1.00
20885;DHT22;10602;48.000;9.654;2023-03-01T06:31:44;-0.50;1.00
20885;DHT22;10602;48.000;9.654;2023-03-01T06:34:12;-0.50;1.00
20885;DHT22;10602;48.000;9.654;2023-03-01T06:36:40;-0.50;1.00
20885;DHT22;10602;48.000;9.654;2023-03-01T06:39:14;-0.50;1.00
20885;DHT22;10602;48.000;9.654;2023-03-01T06:54:24;-0.40;1.00
20885;DHT22;10602;48.000;9.654;2023-03-01T07:14:59;-0.40;1.00
20885;DHT22;10602;48.000;9.654;2023-03-01T07:24:28;-0.30;1.00
20885;DHT22;10602;48.000;9.654;2023-03-01T07:46:51;-0.20;99.90
20885;DHT22;10602;48.000;9.654;2023-03-01T07:49:33;-0.20;99.90
20885;DHT22;10602;48.000;9.654;2023-03-01T08:31:45;0.10;1.00
20885;DHT22;10602;48.000;9.654;2023-03-01T08:34:16;0.20;99.90
20885;DHT22;10602;48.000;9.654;2023-03-01T08:36:48;0.20;1.00
20885;DHT22;10602;48.000;9.654;2023-03-01T08:39:17;0.20;1.00
20885;DHT22;10602;48.000;9.654;2023-03-01T08:41:49;0.20;99.90
20885;DHT22;10602;48.000;9.654;2023-03-01T08:47:25;0.20;1.00
20885;DHT22;10602;48.000;9.654;2023-03-01T08:50:21;0.20;1.00
20885;DHT22;10602;48.000;9.654;2023-03-01T08:59:16;0.20;1.00
20885;DHT22;10602;48.000;9.654;2023-03-01T09:01:58;0.20;1.00
20885;DHT22;10602;48.000;9.654;2023-03-01T09:04:26;0.20;1.00
20885;DHT22;10602;48.000;9.654;2023-03-01T09:07:02;0.30;99.90
20885;DHT22;10602;48.000;9.654;2023-03-01T09:09:32;0.30;99.90
20885;DHT22;10602;48.000;9.654;2023-03-01T09:12:02;0.30;99.90
20885;DHT22;10602;48.000;9.654;2023-03-01T09:14:36;0.30;25.30
20885;DHT22;10602;48.000;9.654;2023-03-01T09:17:11;0.40;1.00
20885;DHT22;10602;48.000;9.654;2023-03-01T09:19:46;0.40;1.00
20885;DHT22;10602;48.000;9.654;2023-03-01T09:24:55;0.50;99.90
20885;DHT22;10602;48.000;9.654;2023-03-01T09:27:40;0.50;99.90
20885;DHT22;10602;48.000;9.654;2023-03-01T09:30:10;0.60;1.00
20885;DHT22;10602;48.000;9.654;2023-03-01T09:32:40;0.60;71.40
20885;DHT22;10602;48.000;9.654;2023-03-01T09:35:09;0.60;1.00
20885;DHT22;10602;48.000;9.654;2023-03-01T09:37:37;0.60;1.00
20885;DHT22;10602;48.000;9.654;2023-03-01T09:40:08;0.60;99.90
20885;DHT22;10602;48.000;9.654;2023-03-01T09:43:01;0.60;99.90
20885;DHT22;10602;48.000;9.654;2023-03-01T09:45:22;0.60;1.00
20885;DHT22;10602;48.000;9.654;2023-03-01T09:47:45;0.70;1.00
20885;DHT22;10602;48.000;9.654;2023-03-01T09:50:18;0.60;99.90
20885;DHT22;10602;48.000;9.654;2023-03-01T09:55:37;0.50;1.00
20885;DHT22;10602;48.000;9.654;2023-03-01T10:00:49;0.50;65.80
20885;DHT22;10602;48.000;9.654;2023-03-01T10:03:23;0.60;1.00
20885;DHT22;10602;48.000;9.654;2023-03-01T10:06:11;0.60;1.00
20885;DHT22;10602;48.000;9.654;2023-03-01T10:08:43;0.60;99.90
20885;DHT22;10602;48.000;9.654;2023-03-01T10:11:20;0.70;99.90
20885;DHT22;10602;48.000;9.654;2023-03-01T10:14:03;0.60;99.90
20885;DHT22;10602;48.000;9.654;2023-03-01T10:16:46;0.70;99.90
20885;DHT22;10602;48.000;9.654;2023-03-01T10:19:17;0.70;1.00
20885;DHT22;10602;48.000;9.654;2023-03-01T10:24:21;0.70;99.90
20885;DHT22;10602;48.000;9.654;2023-03-01T10:27:05;0.90;1.00
20885;DHT22;10602;48.000;9.654;2023-03-01T10:29:34;1.00;1.00
20885;DHT22;10602;48.000;9.654;2023-03-01T10:32:03;0.80;1.00
20885;DHT22;10602;48.000;9.654;2023-03-01T10:34:34;0.80;1.00
20885;DHT22;10602;48.000;9.654;2023-03-01T10:37:19;0.80;99.90
20885;DHT22;10602;48.000;9.654;2023-03-01T10:43:05;0.70;1.00
20885;DHT22;10602;48.000;9.654;2023-03-01T10:45:37;0.70;99.90
20885;DHT22;10602;48.000;9.654;2023-03-01T10:53:49;0.70;99.90
20885;DHT22;10602;48.000;9.654;2023-03-01T10:56:22;0.70;1.00
20885;DHT22;10602;48.000;9.654;2023-03-01T10:59:25;0.80;1.00
20885;DHT22;10602;48.000;9.654;2023-03-01T11:01:50;0.90;1.00
20885;DHT22;10602;48.000;9.654;2023-03-01T11:07:03;1.00;1.00
20885;DHT22;10602;48.000;9.654;2023-03-01T11:09:50;1.20;1.00
20885;DHT22;10602;48.000;9.654;2023-03-01T11:17:33;1.30;1.00
20885;DHT22;10602;48.000;9.654;2023-03-01T11:23:17;1.40;90.00
20885;DHT22;10602;48.000;9.654;2023-03-01T11:25:51;1.40;94.20
20885;DHT22;10602;48.000;9.654;2023-03-01T11:28:21;1.40;99.90
20885;DHT22;10602;48.000;9.654;2023-03-01T11:30:55;1.40;1.00
20885;DHT22;10602;48.000;9.654;2023-03-01T11:36:44;1.40;1.00
20885;DHT22;10602;48.000;9.654;2023-03-01T11:41:48;1.50;1.00
20885;DHT22;10602;48.000;9.654;2023-03-01T11:44:27;1.50;1.00
20885;DHT22;10602;48.000;9.654;2023-03-01T11:47:04;1.70;1.00
20885;DHT22;10602;48.000;9.654;2023-03-01T11:49:48;1.70;1.00
20885;DHT22;10602;48.000;9.654;2023-03-01T11:55:30;1.60;1.00
20885;DHT22;10602;48.000;9.654;2023-03-01T22:15:19;1.60;99.90
20885;DHT22;10602;48.000;9.654;2023-03-01T22:17:47;1.60;99.90
20885;DHT22;10602;48.000;9.654;2023-03-01T22:20:15;1.70;99.90
20885;DHT22;10602;48.000;9.654;2023-03-01T22:22:42;1.70;99.90
20885;DHT22;10602;48.000;9.654;2023-03-01T22:25:11;1.60;99.90
20885;DHT22;10602;48.000;9.654;2023-03-01T22:27:39;1.60;99.90
20885;DHT22;10602;48.000;9.654;2023-03-01T22:30:08;1.60;1.00
20885;DHT22;10602;48.000;9.654;2023-03-01T22:32:37;1.60;1.00
20885;DHT22;10602;48.000;9.654;2023-03-01T22:35:05;1.60;1.00
20885;DHT22;10602;48.000;9.654;2023-03-01T22:37:33;1.60;99.90
20885;DHT22;10602;48.000;9.654;2023-03-01T22:40:00;1.60;99.90
20885;DHT22;10602;48.000;9.654;2023-03-01T22:42:28;1.60;99.90
20885;DHT22;10602;48.000;9.654;2023-03-01T22:44:56;1.70;99.90
20885;DHT22;10602;48.000;9.654;2023-03-01T22:47:24;1.70;99.90
20885;DHT22;10602;48.000;9.654;2023-03-01T22:49:55;1.70;99.90
20885;DHT22;10602;48.000;9.654;2023-03-01T22:52:24;1.60;99.90
20885;DHT22;10602;48.000;9.654;2023-03-01T22:54:55;1.60;99.90
20885;DHT22;10602;48.000;9.654;2023-03-01T22:57:22;1.60;99.90
20885;DHT22;10602;48.000;9.654;2023-03-01T22:59:50;1.60;99.90
20885;DHT22;10602;48.000;9.654;2023-03-01T23:02:17;1.60;99.90
20885;DHT22;10602;48.000;9.654;2023-03-01T23:04:45;1.60;1.00
20885;DHT22;10602;48.000;9.654;2023-03-01T23:07:14;1.60;1.00
20885;DHT22;10602;48.000;9.654;2023-03-01T23:09:41;1.60;1.00
20885;DHT22;10602;48.000;9.654;2023-03-01T23:12:09;1.60;1.00
20885;DHT22;10602;48.000;9.654;2023-03-01T23:14:36;1.60;1.00
20885;DHT22;10602;48.000;9.654;2023-03-01T23:19:38;1.50;1.00
20885;DHT22;10602;48.000;9.654;2023-03-01T23:22:08;1.50;1.00
20885;DHT22;10602;48.000;9.654;2023-03-01T23:24:43;1.50;1.00
20885;DHT22;10602;48.000;9.654;2023-03-01T23:27:11;1.50;1.00
20885;DHT22;10602;48.000;9.654;2023-03-01T23:29:41;1.50;1.00
20885;DHT22;10602;48.000;9.654;2023-03-01T23:32:17;1.50;1.00
20885;DHT22;10602;48.000;9.654;2023-03-01T23:34:52;1.40;1.00
20885;DHT22;10602;48.000;9.654;2023-03-01T23:37:28;1.40;1.00
20885;DHT22;10602;48.000;9.654;2023-03-01T23:40:00;1.40;1.00
20885;DHT22;10602;48.000;9.654;2023-03-01T23:42:36;1.40;1.00
20885;DHT22;10602;48.000;9.654;2023-03-01T23:45:07;1.40;1.00
20885;DHT22;10602;48.000;9.654;2023-03-01T23:47:36;1.40;1.00
20885;DHT22;10602;48.000;9.654;2023-03-01T23:50:04;1.40;1.00
20885;DHT22;10602;48.000;9.654;2023-03-01T23:52:41;1.40;1.00
20885;DHT22;10602;48.000;9.654;2023-03-01T23:55:10;1.40;1.00
20885;DHT22;10602;48.000;9.654;2023-03-01T23:57:40;1.40;1.00
